TimeEST,TemperatureF,Dew PointF,Humidity,Sea Level PressureIn,VisibilityMPH,Wind Direction,Wind SpeedMPH,Gust SpeedMPH,PrecipitationIn,Events,Conditions,WindDirDegrees,DateUTC
12:56 AM,46.0,45.0,96,30.12,9.0,North,8.1,-,N/A,,Clear,360,2012-11-23 05:56:00
1:56 AM,46.0,45.0,96,30.11,8.0,North,6.9,-,N/A,,Clear,350,2012-11-23 06:56:00
2:56 AM,45.0,45.0,100,30.10,9.0,NNW,11.5,-,N/A,,Clear,340,2012-11-23 07:56:00
3:56 AM,45.0,45.0,100,30.09,8.0,NNW,8.1,-,N/A,,Clear,340,2012-11-23 08:56:00
4:56 AM,45.0,44.1,97,30.10,7.0,NNW,6.9,-,N/A,,Clear,340,2012-11-23 09:56:00
5:56 AM,43.0,43.0,100,30.10,7.0,North,5.8,-,N/A,,Clear,350,2012-11-23 10:56:00
6:56 AM,44.1,44.1,100,30.11,5.0,NNW,6.9,-,N/A,,Clear,330,2012-11-23 11:56:00
7:56 AM,45.0,44.1,97,30.12,7.0,NNW,6.9,-,N/A,,Clear,340,2012-11-23 12:56:00
8:56 AM,48.0,46.9,96,30.11,8.0,NNW,8.1,-,N/A,,Clear,330,2012-11-23 13:56:00
9:56 AM,52.0,46.9,83,30.10,10.0,NNW,5.8,-,N/A,,Clear,330,2012-11-23 14:56:00
10:56 AM,55.0,46.9,74,30.08,10.0,NW,5.8,-,N/A,,Clear,320,2012-11-23 15:56:00
11:56 AM,57.9,46.0,65,30.04,10.0,WNW,5.8,-,N/A,,Clear,290,2012-11-23 16:56:00
1:56 PM,57.9,46.0,65,29.99,10.0,SW,8.1,-,N/A,,Clear,230,2012-11-23 18:56:00
2:56 PM,57.9,45.0,62,29.96,10.0,SW,10.4,-,N/A,,Clear,220,2012-11-23 19:56:00
3:56 PM,57.0,44.1,62,29.95,10.0,SSW,11.5,-,N/A,,Clear,210,2012-11-23 20:56:00
4:56 PM,54.0,46.9,77,29.94,10.0,SW,8.1,-,N/A,,Clear,220,2012-11-23 21:56:00
5:56 PM,54.0,48.0,80,29.93,10.0,SSW,8.1,-,N/A,,Clear,210,2012-11-23 22:56:00
6:56 PM,54.0,51.1,90,29.92,10.0,SSW,10.4,-,N/A,,Clear,210,2012-11-23 23:56:00
7:56 PM,55.0,51.1,86,29.92,10.0,SW,10.4,-,N/A,,Clear,230,2012-11-24 00:56:00
8:56 PM,55.9,48.9,77,29.92,10.0,WSW,8.1,-,N/A,,Clear,250,2012-11-24 01:56:00
9:56 PM,55.9,48.9,77,29.91,10.0,WSW,10.4,-,N/A,,Clear,240,2012-11-24 02:56:00
10:56 PM,55.9,51.1,84,29.88,10.0,WSW,8.1,-,N/A,,Clear,240,2012-11-24 03:56:00
11:56 PM,55.9,51.1,84,29.86,10.0,WSW,10.4,-,N/A,,Clear,240,2012-11-24 04:56:00